KIWD/IWD METAR and TAF weather

Enter ICAO airport designator
Station Type Date Time Source
KIWD METAR 2021/09/25 03:56 UTC NOAA

KIWD 250356Z AUTO 00000KT 9SM FEW024 07/07 A2984 RMK AO2 SLP105 T00720067


Station Type Date Time Source
KIWD Decoded METAR 2021/09/25 03:56 UTC NOAA

Ironwood, Gogebic-Iron County Airport, MI, United States (KIWD) 46-32N 090-08W
Sep 24, 2021 - 11:56 PM EDT / 2021.09.25 0356 UTC
Wind: Calm:0
Visibility: 9 mile(s):0
Sky conditions: mostly clear
Temperature: 45.0 F (7.2 C)
Dew Point: 44.1 F (6.7 C)
Relative Humidity: 96%
Pressure (altimeter): 29.84 in. Hg (1010 hPa)
ob: KIWD 250356Z AUTO 00000KT 9SM FEW024 07/07 A2984 RMK AO2 SLP105 T00720067
cycle: 4

Station Type Date Time Source
KIWD TAF 2021/09/24 19:21 UTC NOAA

TAF
AMD KIWD 241918Z 2419/2518 31011G19KT P6SM OVC025
FM242100 31009KT 5SM -SHRA BR OVC012
FM250300 29005KT P6SM OVC050
FM251300 26010G21KT P6SM BKN100

Example: see airport list